sensor_id;sensor_type;location;lat;lon;timestamp;P1;durP1;ratioP1;P2;durP2;ratioP2
61036;SDS011;72210;47.076;15.430;2024-01-10T00:01:27;0.80;;;0.60;;
61036;SDS011;72210;47.076;15.430;2024-01-10T00:03:54;0.80;;;0.70;;
61036;SDS011;72210;47.076;15.430;2024-01-10T00:06:22;0.80;;;0.60;;
61036;SDS011;72210;47.076;15.430;2024-01-10T00:08:49;0.90;;;0.70;;
61036;SDS011;72210;47.076;15.430;2024-01-10T00:11:18;1.00;;;0.73;;
61036;SDS011;72210;47.076;15.430;2024-01-10T00:13:46;0.80;;;0.60;;
61036;SDS011;72210;47.076;15.430;2024-01-10T00:16:13;0.80;;;0.60;;
61036;SDS011;72210;47.076;15.430;2024-01-10T00:18:41;0.90;;;0.70;;
61036;SDS011;72210;47.076;15.430;2024-01-10T00:21:09;0.95;;;0.70;;
61036;SDS011;72210;47.076;15.430;2024-01-10T00:23:36;1.27;;;0.90;;
61036;SDS011;72210;47.076;15.430;2024-01-10T00:26:04;0.90;;;0.70;;
61036;SDS011;72210;47.076;15.430;2024-01-10T00:28:33;0.80;;;0.70;;
61036;SDS011;72210;47.076;15.430;2024-01-10T00:31:01;0.80;;;0.60;;
61036;SDS011;72210;47.076;15.430;2024-01-10T00:33:28;0.80;;;0.60;;
61036;SDS011;72210;47.076;15.430;2024-01-10T00:35:56;0.80;;;0.70;;
61036;SDS011;72210;47.076;15.430;2024-01-10T00:38:23;0.90;;;0.70;;
61036;SDS011;72210;47.076;15.430;2024-01-10T00:40:50;0.80;;;0.60;;
61036;SDS011;72210;47.076;15.430;2024-01-10T00:43:18;1.00;;;0.70;;
61036;SDS011;72210;47.076;15.430;2024-01-10T00:45:47;0.85;;;0.70;;
61036;SDS011;72210;47.076;15.430;2024-01-10T00:48:15;0.80;;;0.70;;
61036;SDS011;72210;47.076;15.430;2024-01-10T00:50:42;0.80;;;0.63;;
61036;SDS011;72210;47.076;15.430;2024-01-10T00:53:11;0.80;;;0.60;;
61036;SDS011;72210;47.076;15.430;2024-01-10T00:55:40;1.00;;;0.75;;
61036;SDS011;72210;47.076;15.430;2024-01-10T00:58:08;0.90;;;0.70;;
61036;SDS011;72210;47.076;15.430;2024-01-10T01:00:36;0.90;;;0.70;;
61036;SDS011;72210;47.076;15.430;2024-01-10T01:03:08;0.85;;;0.65;;
61036;SDS011;72210;47.076;15.430;2024-01-10T01:05:36;0.90;;;0.70;;
61036;SDS011;72210;47.076;15.430;2024-01-10T01:08:09;0.90;;;0.70;;
61036;SDS011;72210;47.076;15.430;2024-01-10T01:10:37;0.90;;;0.70;;
61036;SDS011;72210;47.076;15.430;2024-01-10T01:13:05;0.82;;;0.63;;
61036;SDS011;72210;47.076;15.430;2024-01-10T01:15:33;0.80;;;0.60;;
61036;SDS011;72210;47.076;15.430;2024-01-10T01:18:02;0.90;;;0.70;;
61036;SDS011;72210;47.076;15.430;2024-01-10T01:20:33;0.80;;;0.60;;
61036;SDS011;72210;47.076;15.430;2024-01-10T01:23:01;0.93;;;0.70;;
61036;SDS011;72210;47.076;15.430;2024-01-10T01:25:30;0.88;;;0.68;;
61036;SDS011;72210;47.076;15.430;2024-01-10T01:27:57;1.00;;;0.80;;
61036;SDS011;72210;47.076;15.430;2024-01-10T01:30:24;0.80;;;0.70;;
61036;SDS011;72210;47.076;15.430;2024-01-10T01:32:52;0.80;;;0.70;;
61036;SDS011;72210;47.076;15.430;2024-01-10T01:35:20;0.80;;;0.60;;
61036;SDS011;72210;47.076;15.430;2024-01-10T01:37:50;0.80;;;0.60;;
61036;SDS011;72210;47.076;15.430;2024-01-10T01:40:18;0.70;;;0.60;;
61036;SDS011;72210;47.076;15.430;2024-01-10T01:42:46;0.80;;;0.60;;
61036;SDS011;72210;47.076;15.430;2024-01-10T01:45:15;0.90;;;0.70;;
61036;SDS011;72210;47.076;15.430;2024-01-10T01:47:43;0.80;;;0.60;;
61036;SDS011;72210;47.076;15.430;2024-01-10T01:50:12;0.98;;;0.70;;
61036;SDS011;72210;47.076;15.430;2024-01-10T01:52:40;0.80;;;0.60;;
61036;SDS011;72210;47.076;15.430;2024-01-10T01:55:11;0.82;;;0.63;;
61036;SDS011;72210;47.076;15.430;2024-01-10T01:57:40;0.80;;;0.60;;
61036;SDS011;72210;47.076;15.430;2024-01-10T02:00:08;0.80;;;0.60;;
61036;SDS011;72210;47.076;15.430;2024-01-10T02:02:39;0.80;;;0.60;;
61036;SDS011;72210;47.076;15.430;2024-01-10T02:05:06;1.00;;;0.70;;
61036;SDS011;72210;47.076;15.430;2024-01-10T02:07:34;0.82;;;0.65;;
61036;SDS011;72210;47.076;15.430;2024-01-10T02:10:02;0.80;;;0.60;;
61036;SDS011;72210;47.076;15.430;2024-01-10T02:12:32;0.80;;;0.60;;
61036;SDS011;72210;47.076;15.430;2024-01-10T02:15:00;0.93;;;0.70;;
61036;SDS011;72210;47.076;15.430;2024-01-10T02:17:28;0.90;;;0.70;;
61036;SDS011;72210;47.076;15.430;2024-01-10T02:20:07;1.00;;;0.80;;
61036;SDS011;72210;47.076;15.430;2024-01-10T02:22:35;0.90;;;0.70;;
61036;SDS011;72210;47.076;15.430;2024-01-10T02:25:04;0.80;;;0.70;;
61036;SDS011;72210;47.076;15.430;2024-01-10T02:27:32;0.90;;;0.70;;
61036;SDS011;72210;47.076;15.430;2024-01-10T02:30:00;0.80;;;0.70;;
61036;SDS011;72210;47.076;15.430;2024-01-10T02:32:30;1.00;;;0.77;;
61036;SDS011;72210;47.076;15.430;2024-01-10T02:34:57;0.90;;;0.70;;
61036;SDS011;72210;47.076;15.430;2024-01-10T02:37:25;0.80;;;0.70;;
61036;SDS011;72210;47.076;15.430;2024-01-10T02:39:53;0.80;;;0.60;;
61036;SDS011;72210;47.076;15.430;2024-01-10T02:42:22;0.82;;;0.70;;
61036;SDS011;72210;47.076;15.430;2024-01-10T02:44:49;0.85;;;0.70;;
61036;SDS011;72210;47.076;15.430;2024-01-10T02:47:16;0.80;;;0.70;;
61036;SDS011;72210;47.076;15.430;2024-01-10T02:49:43;0.90;;;0.70;;
61036;SDS011;72210;47.076;15.430;2024-01-10T02:52:11;0.90;;;0.70;;
61036;SDS011;72210;47.076;15.430;2024-01-10T02:54:38;0.80;;;0.60;;
61036;SDS011;72210;47.076;15.430;2024-01-10T02:57:05;0.90;;;0.70;;
61036;SDS011;72210;47.076;15.430;2024-01-10T02:59:34;0.80;;;0.70;;
61036;SDS011;72210;47.076;15.430;2024-01-10T03:02:01;1.00;;;0.73;;
61036;SDS011;72210;47.076;15.430;2024-01-10T03:04:29;0.90;;;0.70;;
61036;SDS011;72210;47.076;15.430;2024-01-10T03:06:56;0.90;;;0.70;;
61036;SDS011;72210;47.076;15.430;2024-01-10T03:09:23;0.95;;;0.70;;
61036;SDS011;72210;47.076;15.430;2024-01-10T03:11:50;0.90;;;0.70;;
61036;SDS011;72210;47.076;15.430;2024-01-10T03:14:17;0.90;;;0.70;;
61036;SDS011;72210;47.076;15.430;2024-01-10T03:16:46;0.90;;;0.70;;
61036;SDS011;72210;47.076;15.430;2024-01-10T03:19:13;0.90;;;0.70;;
61036;SDS011;72210;47.076;15.430;2024-01-10T03:21:43;1.00;;;0.80;;
61036;SDS011;72210;47.076;15.430;2024-01-10T03:24:11;1.00;;;0.80;;
61036;SDS011;72210;47.076;15.430;2024-01-10T03:26:38;0.93;;;0.70;;
61036;SDS011;72210;47.076;15.430;2024-01-10T03:29:05;0.82;;;0.70;;
61036;SDS011;72210;47.076;15.430;2024-01-10T03:31:33;0.90;;;0.70;;
61036;SDS011;72210;47.076;15.430;2024-01-10T03:34:03;0.80;;;0.70;;
61036;SDS011;72210;47.076;15.430;2024-01-10T03:36:30;1.00;;;0.70;;
61036;SDS011;72210;47.076;15.430;2024-01-10T03:38:58;0.90;;;0.70;;
61036;SDS011;72210;47.076;15.430;2024-01-10T03:41:25;0.90;;;0.70;;
61036;SDS011;72210;47.076;15.430;2024-01-10T03:43:53;0.90;;;0.70;;
61036;SDS011;72210;47.076;15.430;2024-01-10T03:46:20;1.00;;;0.70;;
61036;SDS011;72210;47.076;15.430;2024-01-10T03:48:48;0.90;;;0.70;;
61036;SDS011;72210;47.076;15.430;2024-01-10T03:51:18;0.90;;;0.70;;
61036;SDS011;72210;47.076;15.430;2024-01-10T03:53:47;0.90;;;0.70;;
61036;SDS011;72210;47.076;15.430;2024-01-10T03:56:14;1.00;;;0.80;;
61036;SDS011;72210;47.076;15.430;2024-01-10T03:58:41;0.93;;;0.70;;
61036;SDS011;72210;47.076;15.430;2024-01-10T04:01:09;0.90;;;0.70;;
61036;SDS011;72210;47.076;15.430;2024-01-10T04:03:37;0.90;;;0.70;;
61036;SDS011;72210;47.076;15.430;2024-01-10T04:06:04;0.80;;;0.70;;
61036;SDS011;72210;47.076;15.430;2024-01-10T04:08:35;0.90;;;0.70;;
61036;SDS011;72210;47.076;15.430;2024-01-10T04:11:03;1.10;;;0.80;;
61036;SDS011;72210;47.076;15.430;2024-01-10T04:13:30;0.80;;;0.70;;
61036;SDS011;72210;47.076;15.430;2024-01-10T04:15:58;0.98;;;0.80;;
61036;SDS011;72210;47.076;15.430;2024-01-10T04:18:25;0.80;;;0.70;;
61036;SDS011;72210;47.076;15.430;2024-01-10T04:20:53;0.80;;;0.60;;
61036;SDS011;72210;47.076;15.430;2024-01-10T04:23:20;1.15;;;0.70;;
61036;SDS011;72210;47.076;15.430;2024-01-10T04:25:49;0.90;;;0.70;;
61036;SDS011;72210;47.076;15.430;2024-01-10T04:28:17;1.00;;;0.70;;
61036;SDS011;72210;47.076;15.430;2024-01-10T04:30:44;0.80;;;0.70;;
61036;SDS011;72210;47.076;15.430;2024-01-10T04:33:11;0.90;;;0.70;;
61036;SDS011;72210;47.076;15.430;2024-01-10T04:35:39;1.10;;;0.80;;
61036;SDS011;72210;47.076;15.430;2024-01-10T04:38:06;0.90;;;0.70;;
61036;SDS011;72210;47.076;15.430;2024-01-10T04:40:33;0.93;;;0.70;;
61036;SDS011;72210;47.076;15.430;2024-01-10T04:43:03;0.80;;;0.60;;
61036;SDS011;72210;47.076;15.430;2024-01-10T04:45:31;0.80;;;0.70;;
61036;SDS011;72210;47.076;15.430;2024-01-10T04:47:58;0.93;;;0.70;;
61036;SDS011;72210;47.076;15.430;2024-01-10T04:50:25;0.90;;;0.70;;
61036;SDS011;72210;47.076;15.430;2024-01-10T04:52:53;0.80;;;0.70;;
61036;SDS011;72210;47.076;15.430;2024-01-10T04:55:20;0.90;;;0.70;;
61036;SDS011;72210;47.076;15.430;2024-01-10T04:57:49;0.80;;;0.70;;
61036;SDS011;72210;47.076;15.430;2024-01-10T05:00:18;1.13;;;0.80;;
61036;SDS011;72210;47.076;15.430;2024-01-10T05:02:45;1.00;;;0.80;;
61036;SDS011;72210;47.076;15.430;2024-01-10T05:05:13;0.80;;;0.70;;
61036;SDS011;72210;47.076;15.430;2024-01-10T05:07:40;0.93;;;0.73;;
61036;SDS011;72210;47.076;15.430;2024-01-10T05:10:08;0.80;;;0.70;;
61036;SDS011;72210;47.076;15.430;2024-01-10T05:12:35;0.80;;;0.70;;
61036;SDS011;72210;47.076;15.430;2024-01-10T05:15:02;0.90;;;0.70;;
61036;SDS011;72210;47.076;15.430;2024-01-10T05:17:31;0.90;;;0.70;;
61036;SDS011;72210;47.076;15.430;2024-01-10T05:19:59;0.75;;;0.63;;
61036;SDS011;72210;47.076;15.430;2024-01-10T05:22:27;0.90;;;0.70;;
61036;SDS011;72210;47.076;15.430;2024-01-10T05:24:55;1.00;;;0.73;;
61036;SDS011;72210;47.076;15.430;2024-01-10T05:27:23;0.90;;;0.70;;
61036;SDS011;72210;47.076;15.430;2024-01-10T05:29:51;0.93;;;0.70;;
61036;SDS011;72210;47.076;15.430;2024-01-10T05:32:19;0.90;;;0.70;;
61036;SDS011;72210;47.076;15.430;2024-01-10T05:34:48;0.90;;;0.70;;
61036;SDS011;72210;47.076;15.430;2024-01-10T05:37:15;0.90;;;0.70;;
61036;SDS011;72210;47.076;15.430;2024-01-10T05:39:42;0.98;;;0.73;;
61036;SDS011;72210;47.076;15.430;2024-01-10T05:42:10;0.95;;;0.73;;
61036;SDS011;72210;47.076;15.430;2024-01-10T05:44:37;0.90;;;0.70;;
61036;SDS011;72210;47.076;15.430;2024-01-10T05:47:04;1.27;;;0.90;;
61036;SDS011;72210;47.076;15.430;2024-01-10T05:49:32;1.13;;;0.80;;
61036;SDS011;72210;47.076;15.430;2024-01-10T05:52:01;1.10;;;0.80;;
61036;SDS011;72210;47.076;15.430;2024-01-10T05:54:28;1.00;;;0.70;;
61036;SDS011;72210;47.076;15.430;2024-01-10T05:56:57;0.90;;;0.70;;
61036;SDS011;72210;47.076;15.430;2024-01-10T05:59:25;0.90;;;0.70;;
61036;SDS011;72210;47.076;15.430;2024-01-10T06:01:55;0.90;;;0.70;;
61036;SDS011;72210;47.076;15.430;2024-01-10T06:04:23;1.17;;;0.82;;
61036;SDS011;72210;47.076;15.430;2024-01-10T06:06:50;1.00;;;0.80;;
61036;SDS011;72210;47.076;15.430;2024-01-10T06:09:19;0.80;;;0.70;;
61036;SDS011;72210;47.076;15.430;2024-01-10T06:11:47;0.80;;;0.70;;
61036;SDS011;72210;47.076;15.430;2024-01-10T06:14:17;0.80;;;0.70;;
61036;SDS011;72210;47.076;15.430;2024-01-10T06:16:45;0.90;;;0.70;;
61036;SDS011;72210;47.076;15.430;2024-01-10T06:19:12;0.90;;;0.70;;
61036;SDS011;72210;47.076;15.430;2024-01-10T06:21:40;0.80;;;0.70;;
61036;SDS011;72210;47.076;15.430;2024-01-10T06:24:07;1.10;;;0.80;;
61036;SDS011;72210;47.076;15.430;2024-01-10T06:26:36;1.00;;;0.80;;
61036;SDS011;72210;47.076;15.430;2024-01-10T06:29:03;0.90;;;0.70;;
61036;SDS011;72210;47.076;15.430;2024-01-10T06:31:31;1.00;;;0.80;;
61036;SDS011;72210;47.076;15.430;2024-01-10T06:33:58;1.05;;;0.80;;
61036;SDS011;72210;47.076;15.430;2024-01-10T06:36:26;1.05;;;0.80;;
61036;SDS011;72210;47.076;15.430;2024-01-10T06:38:53;0.90;;;0.80;;
61036;SDS011;72210;47.076;15.430;2024-01-10T06:41:21;0.80;;;0.70;;
61036;SDS011;72210;47.076;15.430;2024-01-10T06:43:51;1.00;;;0.80;;
61036;SDS011;72210;47.076;15.430;2024-01-10T06:46:19;0.90;;;0.70;;
61036;SDS011;72210;47.076;15.430;2024-01-10T06:48:46;1.23;;;0.82;;
61036;SDS011;72210;47.076;15.430;2024-01-10T06:51:14;0.90;;;0.70;;
61036;SDS011;72210;47.076;15.430;2024-01-10T06:53:41;1.17;;;0.90;;
61036;SDS011;72210;47.076;15.430;2024-01-10T06:56:09;1.13;;;0.82;;
61036;SDS011;72210;47.076;15.430;2024-01-10T06:58:38;0.95;;;0.77;;
61036;SDS011;72210;47.076;15.430;2024-01-10T07:01:12;0.90;;;0.70;;
61036;SDS011;72210;47.076;15.430;2024-01-10T07:03:41;0.90;;;0.70;;
61036;SDS011;72210;47.076;15.430;2024-01-10T07:06:09;0.80;;;0.70;;
61036;SDS011;72210;47.076;15.430;2024-01-10T07:08:37;0.90;;;0.70;;
61036;SDS011;72210;47.076;15.430;2024-01-10T07:11:04;0.90;;;0.70;;
61036;SDS011;72210;47.076;15.430;2024-01-10T07:13:33;0.93;;;0.70;;
61036;SDS011;72210;47.076;15.430;2024-01-10T07:16:01;1.00;;;0.80;;
61036;SDS011;72210;47.076;15.430;2024-01-10T07:18:30;0.90;;;0.70;;
61036;SDS011;72210;47.076;15.430;2024-01-10T07:20:58;0.90;;;0.70;;
61036;SDS011;72210;47.076;15.430;2024-01-10T07:23:25;1.10;;;0.80;;
61036;SDS011;72210;47.076;15.430;2024-01-10T07:25:52;0.90;;;0.70;;
61036;SDS011;72210;47.076;15.430;2024-01-10T07:28:20;0.90;;;0.70;;
61036;SDS011;72210;47.076;15.430;2024-01-10T07:30:48;0.82;;;0.70;;
61036;SDS011;72210;47.076;15.430;2024-01-10T07:33:15;0.90;;;0.70;;
61036;SDS011;72210;47.076;15.430;2024-01-10T07:35:44;0.93;;;0.70;;
61036;SDS011;72210;47.076;15.430;2024-01-10T07:38:11;0.85;;;0.70;;
61036;SDS011;72210;47.076;15.430;2024-01-10T07:40:39;1.00;;;0.80;;
61036;SDS011;72210;47.076;15.430;2024-01-10T07:43:07;1.00;;;0.80;;
61036;SDS011;72210;47.076;15.430;2024-01-10T07:45:34;0.90;;;0.70;;
61036;SDS011;72210;47.076;15.430;2024-01-10T07:48:01;0.95;;;0.77;;
61036;SDS011;72210;47.076;15.430;2024-01-10T07:50:29;0.95;;;0.70;;
61036;SDS011;72210;47.076;15.430;2024-01-10T07:52:58;1.00;;;0.80;;
61036;SDS011;72210;47.076;15.430;2024-01-10T07:55:27;0.90;;;0.70;;
61036;SDS011;72210;47.076;15.430;2024-01-10T07:57:54;1.20;;;0.70;;
61036;SDS011;72210;47.076;15.430;2024-01-10T08:00:22;0.90;;;0.70;;
61036;SDS011;72210;47.076;15.430;2024-01-10T08:02:50;0.90;;;0.70;;
61036;SDS011;72210;47.076;15.430;2024-01-10T08:05:17;0.80;;;0.60;;
61036;SDS011;72210;47.076;15.430;2024-01-10T08:07:45;0.90;;;0.70;;
61036;SDS011;72210;47.076;15.430;2024-01-10T08:10:14;0.80;;;0.70;;
61036;SDS011;72210;47.076;15.430;2024-01-10T08:12:42;0.80;;;0.60;;
61036;SDS011;72210;47.076;15.430;2024-01-10T08:15:10;0.85;;;0.70;;
61036;SDS011;72210;47.076;15.430;2024-01-10T08:17:37;0.80;;;0.70;;
61036;SDS011;72210;47.076;15.430;2024-01-10T08:20:05;1.00;;;0.70;;
61036;SDS011;72210;47.076;15.430;2024-01-10T08:22:34;0.90;;;0.70;;
61036;SDS011;72210;47.076;15.430;2024-01-10T08:25:01;0.90;;;0.70;;
61036;SDS011;72210;47.076;15.430;2024-01-10T08:27:31;1.35;;;0.95;;
61036;SDS011;72210;47.076;15.430;2024-01-10T08:29:59;1.10;;;0.80;;
61036;SDS011;72210;47.076;15.430;2024-01-10T08:32:27;1.30;;;0.90;;
61036;SDS011;72210;47.076;15.430;2024-01-10T08:34:55;1.02;;;0.80;;
61036;SDS011;72210;47.076;15.430;2024-01-10T08:37:22;1.00;;;0.77;;
61036;SDS011;72210;47.076;15.430;2024-01-10T08:39:49;0.80;;;0.70;;
61036;SDS011;72210;47.076;15.430;2024-01-10T08:42:17;0.80;;;0.70;;
61036;SDS011;72210;47.076;15.430;2024-01-10T08:44:46;1.02;;;0.57;;
61036;SDS011;72210;47.076;15.430;2024-01-10T08:47:13;0.90;;;0.70;;
61036;SDS011;72210;47.076;15.430;2024-01-10T08:49:42;0.95;;;0.73;;
61036;SDS011;72210;47.076;15.430;2024-01-10T08:52:10;0.90;;;0.70;;
61036;SDS011;72210;47.076;15.430;2024-01-10T08:54:39;0.95;;;0.73;;
61036;SDS011;72210;47.076;15.430;2024-01-10T08:57:06;0.70;;;0.60;;
61036;SDS011;72210;47.076;15.430;2024-01-10T08:59:33;0.63;;;0.60;;
61036;SDS011;72210;47.076;15.430;2024-01-10T09:02:03;0.98;;;0.73;;
61036;SDS011;72210;47.076;15.430;2024-01-10T09:04:30;0.75;;;0.68;;
61036;SDS011;72210;47.076;15.430;2024-01-10T09:07:01;0.68;;;0.60;;
61036;SDS011;72210;47.076;15.430;2024-01-10T09:09:30;0.70;;;0.60;;
61036;SDS011;72210;47.076;15.430;2024-01-10T09:11:58;0.77;;;0.60;;
61036;SDS011;72210;47.076;15.430;2024-01-10T09:14:27;0.70;;;0.50;;
61036;SDS011;72210;47.076;15.430;2024-01-10T09:16:56;0.80;;;0.70;;
61036;SDS011;72210;47.076;15.430;2024-01-10T09:19:25;0.70;;;0.57;;
61036;SDS011;72210;47.076;15.430;2024-01-10T09:21:53;1.05;;;0.70;;
61036;SDS011;72210;47.076;15.430;2024-01-10T09:24:20;0.88;;;0.65;;
61036;SDS011;72210;47.076;15.430;2024-01-10T09:26:55;0.80;;;0.60;;
61036;SDS011;72210;47.076;15.430;2024-01-10T09:29:23;0.82;;;0.60;;
61036;SDS011;72210;47.076;15.430;2024-01-10T09:31:51;0.77;;;0.60;;
61036;SDS011;72210;47.076;15.430;2024-01-10T09:34:18;0.70;;;0.60;;
61036;SDS011;72210;47.076;15.430;2024-01-10T09:36:48;0.60;;;0.50;;
61036;SDS011;72210;47.076;15.430;2024-01-10T09:39:15;0.80;;;0.60;;
61036;SDS011;72210;47.076;15.430;2024-01-10T09:41:45;0.70;;;0.50;;
61036;SDS011;72210;47.076;15.430;2024-01-10T09:44:13;0.65;;;0.50;;
61036;SDS011;72210;47.076;15.430;2024-01-10T09:46:41;0.50;;;0.47;;
61036;SDS011;72210;47.076;15.430;2024-01-10T09:49:13;0.60;;;0.45;;
61036;SDS011;72210;47.076;15.430;2024-01-10T09:51:40;0.70;;;0.52;;
61036;SDS011;72210;47.076;15.430;2024-01-10T09:54:10;0.45;;;0.40;;
61036;SDS011;72210;47.076;15.430;2024-01-10T09:56:38;0.40;;;0.40;;
61036;SDS011;72210;47.076;15.430;2024-01-10T09:59:05;0.60;;;0.50;;
61036;SDS011;72210;47.076;15.430;2024-01-10T10:01:36;0.50;;;0.45;;
61036;SDS011;72210;47.076;15.430;2024-01-10T10:04:04;1.00;;;0.70;;
61036;SDS011;72210;47.076;15.430;2024-01-10T10:06:32;0.50;;;0.40;;
61036;SDS011;72210;47.076;15.430;2024-01-10T10:08:59;0.50;;;0.40;;
61036;SDS011;72210;47.076;15.430;2024-01-10T10:11:28;0.60;;;0.50;;
61036;SDS011;72210;47.076;15.430;2024-01-10T10:13:56;0.60;;;0.50;;
61036;SDS011;72210;47.076;15.430;2024-01-10T10:16:23;0.40;;;0.40;;
61036;SDS011;72210;47.076;15.430;2024-01-10T10:18:53;0.57;;;0.40;;
61036;SDS011;72210;47.076;15.430;2024-01-10T10:21:20;0.70;;;0.50;;
61036;SDS011;72210;47.076;15.430;2024-01-10T10:23:57;0.52;;;0.50;;
61036;SDS011;72210;47.076;15.430;2024-01-10T10:26:26;0.40;;;0.40;;
61036;SDS011;72210;47.076;15.430;2024-01-10T10:28:55;0.45;;;0.40;;
61036;SDS011;72210;47.076;15.430;2024-01-10T10:31:23;0.60;;;0.50;;
61036;SDS011;72210;47.076;15.430;2024-01-10T10:33:51;1.13;;;0.60;;
61036;SDS011;72210;47.076;15.430;2024-01-10T10:36:20;0.60;;;0.50;;
61036;SDS011;72210;47.076;15.430;2024-01-10T10:38:47;0.50;;;0.40;;
61036;SDS011;72210;47.076;15.430;2024-01-10T10:41:15;0.22;;;0.22;;
61036;SDS011;72210;47.076;15.430;2024-01-10T10:43:45;0.43;;;0.40;;
61036;SDS011;72210;47.076;15.430;2024-01-10T10:46:12;0.40;;;0.38;;
61036;SDS011;72210;47.076;15.430;2024-01-10T10:48:40;0.60;;;0.43;;
61036;SDS011;72210;47.076;15.430;2024-01-10T10:51:09;0.40;;;0.40;;
61036;SDS011;72210;47.076;15.430;2024-01-10T10:53:38;0.30;;;0.30;;
61036;SDS011;72210;47.076;15.430;2024-01-10T10:56:06;0.50;;;0.40;;
61036;SDS011;72210;47.076;15.430;2024-01-10T10:58:35;0.52;;;0.40;;
61036;SDS011;72210;47.076;15.430;2024-01-10T11:01:08;0.70;;;0.57;;
61036;SDS011;72210;47.076;15.430;2024-01-10T11:03:37;0.60;;;0.50;;
61036;SDS011;72210;47.076;15.430;2024-01-10T11:06:06;0.60;;;0.50;;
61036;SDS011;72210;47.076;15.430;2024-01-10T11:08:36;0.57;;;0.50;;
61036;SDS011;72210;47.076;15.430;2024-01-10T11:11:11;0.70;;;0.50;;
61036;SDS011;72210;47.076;15.430;2024-01-10T11:14:02;0.60;;;0.50;;
61036;SDS011;72210;47.076;15.430;2024-01-10T11:20:16;0.60;;;0.50;;
61036;SDS011;72210;47.076;15.430;2024-01-10T11:22:57;0.50;;;0.30;;
61036;SDS011;72210;47.076;15.430;2024-01-10T11:25:32;0.55;;;0.50;;
61036;SDS011;72210;47.076;15.430;2024-01-10T11:28:02;0.43;;;0.40;;
61036;SDS011;72210;47.076;15.430;2024-01-10T11:30:32;0.70;;;0.50;;
61036;SDS011;72210;47.076;15.430;2024-01-10T11:33:00;0.40;;;0.40;;
61036;SDS011;72210;47.076;15.430;2024-01-10T11:35:33;0.38;;;0.38;;
61036;SDS011;72210;47.076;15.430;2024-01-10T11:38:01;0.38;;;0.30;;
61036;SDS011;72210;47.076;15.430;2024-01-10T11:40:47;0.50;;;0.40;;
61036;SDS011;72210;47.076;15.430;2024-01-10T11:43:15;0.50;;;0.40;;
61036;SDS011;72210;47.076;15.430;2024-01-10T11:45:52;0.30;;;0.30;;
61036;SDS011;72210;47.076;15.430;2024-01-10T11:48:28;0.68;;;0.50;;
61036;SDS011;72210;47.076;15.430;2024-01-10T11:50:58;0.60;;;0.50;;
61036;SDS011;72210;47.076;15.430;2024-01-10T11:53:38;0.50;;;0.43;;
61036;SDS011;72210;47.076;15.430;2024-01-10T11:56:10;0.52;;;0.50;;
61036;SDS011;72210;47.076;15.430;2024-01-10T11:58:56;0.60;;;0.50;;
61036;SDS011;72210;47.076;15.430;2024-01-10T12:01:28;0.50;;;0.40;;
61036;SDS011;72210;47.076;15.430;2024-01-10T12:03:55;0.60;;;0.50;;
61036;SDS011;72210;47.076;15.430;2024-01-10T12:06:42;0.57;;;0.47;;
61036;SDS011;72210;47.076;15.430;2024-01-10T12:09:10;0.60;;;0.50;;
61036;SDS011;72210;47.076;15.430;2024-01-10T12:11:39;0.30;;;0.30;;
61036;SDS011;72210;47.076;15.430;2024-01-10T12:14:06;0.30;;;0.30;;
61036;SDS011;72210;47.076;15.430;2024-01-10T12:16:35;0.50;;;0.40;;
61036;SDS011;72210;47.076;15.430;2024-01-10T12:19:04;0.30;;;0.22;;
61036;SDS011;72210;47.076;15.430;2024-01-10T12:21:32;0.20;;;0.20;;
61036;SDS011;72210;47.076;15.430;2024-01-10T12:24:01;0.10;;;0.10;;
61036;SDS011;72210;47.076;15.430;2024-01-10T12:26:30;0.40;;;0.20;;
61036;SDS011;72210;47.076;15.430;2024-01-10T12:28:58;0.20;;;0.20;;
61036;SDS011;72210;47.076;15.430;2024-01-10T12:31:28;0.30;;;0.20;;
61036;SDS011;72210;47.076;15.430;2024-01-10T12:33:56;0.30;;;0.30;;
61036;SDS011;72210;47.076;15.430;2024-01-10T12:36:24;0.32;;;0.30;;
61036;SDS011;72210;47.076;15.430;2024-01-10T12:38:52;0.30;;;0.30;;
61036;SDS011;72210;47.076;15.430;2024-01-10T12:41:21;0.40;;;0.40;;
61036;SDS011;72210;47.076;15.430;2024-01-10T12:43:50;0.40;;;0.40;;
61036;SDS011;72210;47.076;15.430;2024-01-10T12:46:21;0.40;;;0.40;;
61036;SDS011;72210;47.076;15.430;2024-01-10T12:48:57;0.30;;;0.30;;
61036;SDS011;72210;47.076;15.430;2024-01-10T12:51:26;0.30;;;0.30;;
61036;SDS011;72210;47.076;15.430;2024-01-10T12:53:55;0.50;;;0.40;;
61036;SDS011;72210;47.076;15.430;2024-01-10T12:56:25;0.40;;;0.40;;
61036;SDS011;72210;47.076;15.430;2024-01-10T12:58:54;0.57;;;0.40;;
61036;SDS011;72210;47.076;15.430;2024-01-10T13:01:22;0.50;;;0.40;;
61036;SDS011;72210;47.076;15.430;2024-01-10T13:03:50;0.70;;;0.50;;
61036;SDS011;72210;47.076;15.430;2024-01-10T13:06:18;0.50;;;0.40;;
61036;SDS011;72210;47.076;15.430;2024-01-10T13:08:46;0.60;;;0.50;;
61036;SDS011;72210;47.076;15.430;2024-01-10T13:11:13;0.50;;;0.40;;
61036;SDS011;72210;47.076;15.430;2024-01-10T13:13:42;0.50;;;0.50;;
61036;SDS011;72210;47.076;15.430;2024-01-10T13:16:10;0.50;;;0.40;;
61036;SDS011;72210;47.076;15.430;2024-01-10T13:18:37;0.50;;;0.40;;
61036;SDS011;72210;47.076;15.430;2024-01-10T13:21:05;0.50;;;0.50;;
61036;SDS011;72210;47.076;15.430;2024-01-10T13:23:33;0.60;;;0.50;;
61036;SDS011;72210;47.076;15.430;2024-01-10T13:26:00;0.75;;;0.60;;
61036;SDS011;72210;47.076;15.430;2024-01-10T13:28:28;0.50;;;0.50;;
61036;SDS011;72210;47.076;15.430;2024-01-10T13:30:57;0.60;;;0.50;;
61036;SDS011;72210;47.076;15.430;2024-01-10T13:33:26;0.55;;;0.50;;
61036;SDS011;72210;47.076;15.430;2024-01-10T13:35:53;0.63;;;0.50;;
61036;SDS011;72210;47.076;15.430;2024-01-10T13:38:21;0.50;;;0.50;;
61036;SDS011;72210;47.076;15.430;2024-01-10T13:40:48;0.50;;;0.50;;
61036;SDS011;72210;47.076;15.430;2024-01-10T13:43:15;0.50;;;0.50;;
61036;SDS011;72210;47.076;15.430;2024-01-10T13:45:43;0.60;;;0.50;;
61036;SDS011;72210;47.076;15.430;2024-01-10T13:48:11;0.57;;;0.50;;
61036;SDS011;72210;47.076;15.430;2024-01-10T13:50:39;0.63;;;0.50;;
61036;SDS011;72210;47.076;15.430;2024-01-10T13:53:06;0.80;;;0.60;;
61036;SDS011;72210;47.076;15.430;2024-01-10T13:55:34;0.60;;;0.50;;
61036;SDS011;72210;47.076;15.430;2024-01-10T13:58:01;0.60;;;0.50;;
61036;SDS011;72210;47.076;15.430;2024-01-10T14:00:29;0.60;;;0.50;;
61036;SDS011;72210;47.076;15.430;2024-01-10T14:02:57;0.70;;;0.60;;
61036;SDS011;72210;47.076;15.430;2024-01-10T14:05:27;0.60;;;0.52;;
61036;SDS011;72210;47.076;15.430;2024-01-10T14:07:55;0.60;;;0.60;;
61036;SDS011;72210;47.076;15.430;2024-01-10T14:10:23;0.60;;;0.50;;
61036;SDS011;72210;47.076;15.430;2024-01-10T14:12:50;0.60;;;0.50;;
61036;SDS011;72210;47.076;15.430;2024-01-10T14:15:18;0.60;;;0.50;;
61036;SDS011;72210;47.076;15.430;2024-01-10T14:17:45;0.70;;;0.60;;
61036;SDS011;72210;47.076;15.430;2024-01-10T14:20:13;0.60;;;0.60;;
61036;SDS011;72210;47.076;15.430;2024-01-10T14:22:42;0.60;;;0.60;;
61036;SDS011;72210;47.076;15.430;2024-01-10T14:25:10;0.85;;;0.65;;
61036;SDS011;72210;47.076;15.430;2024-01-10T14:27:37;0.50;;;0.50;;
61036;SDS011;72210;47.076;15.430;2024-01-10T14:30:06;0.70;;;0.50;;
61036;SDS011;72210;47.076;15.430;2024-01-10T14:32:33;0.60;;;0.60;;
61036;SDS011;72210;47.076;15.430;2024-01-10T14:35:02;0.70;;;0.60;;
61036;SDS011;72210;47.076;15.430;2024-01-10T14:37:30;0.60;;;0.50;;
61036;SDS011;72210;47.076;15.430;2024-01-10T14:39:59;0.65;;;0.60;;
61036;SDS011;72210;47.076;15.430;2024-01-10T14:42:26;0.70;;;0.60;;
61036;SDS011;72210;47.076;15.430;2024-01-10T14:44:54;0.70;;;0.60;;